13 | 07 | 2020

Daten Vortag

Klimadaten von 10m Höhe gemessen, Station

Datum / Zeit Intervall min Luftfeuchte % Temperatur °C absolut Luftdruck hPa Wind m/s Windbö m/s Richtung Relative Luftdruck hPa Taupunkt °C Windchill °C Niederschlag mm
12-07-2020 00:13 5 90 10.5 1023.6 0.0 0.0 N 1025.4 8.9 10.5 0.0
12-07-2020 00:20 5 90 10.4 1023.7 0.0 0.0 NW 1025.5 8.8 10.4 0.0
12-07-2020 00:25 5 90 10.3 1023.7 0.0 0.0 N 1025.5 8.7 10.3 0.0
12-07-2020 00:30 5 90 10.2 1023.8 0.0 0.0 N 1025.6 8.6 10.2 0.0
12-07-2020 00:35 5 90 10.1 1023.7 0.0 0.0 SW 1025.5 8.5 10.1 0.0
12-07-2020 00:40 5 91 10.0 1023.6 0.0 0.0 N 1025.4 8.6 10.0 0.0
12-07-2020 00:45 5 91 10.0 1023.6 0.0 0.0 N 1025.4 8.6 10.0 0.0
12-07-2020 00:50 5 91 10.0 1023.6 0.0 1.1 N 1025.4 8.6 10.0 0.0
12-07-2020 00:55 5 91 10.0 1023.7 0.0 0.0 NE 1025.5 8.6 10.0 0.0
12-07-2020 01:00 5 91 10.0 1023.8 0.0 0.0 NW 1025.6 8.6 10.0 0.0
12-07-2020 01:05 5 91 10.0 1023.7 0.0 0.0 NW 1025.5 8.6 10.0 0.0
12-07-2020 01:10 5 91 9.9 1023.8 0.0 1.1 N 1025.6 8.5 9.9 0.0
12-07-2020 01:15 5 92 10.0 1023.6 0.0 1.1 N 1025.4 8.8 10.0 0.0
12-07-2020 01:20 5 92 10.0 1023.7 1.1 2.5 S 1025.5 8.8 10.0 0.0
12-07-2020 01:25 5 92 10.0 1023.7 0.0 0.0 N 1025.5 8.8 10.0 0.0
12-07-2020 01:30 5 92 9.9 1023.9 0.0 0.0 N 1025.7 8.7 9.9 0.0
12-07-2020 01:35 5 92 9.9 1023.9 0.0 0.0 NW 1025.7 8.7 9.9 0.0
12-07-2020 01:40 5 92 9.8 1023.9 0.0 0.0 NE 1025.7 8.6 9.8 0.0
12-07-2020 01:45 5 92 9.7 1023.8 2.5 3.6 N 1025.6 8.5 9.7 0.0
12-07-2020 01:50 5 92 9.7 1023.9 0.0 1.1 NW 1025.7 8.5 9.7 0.0
12-07-2020 01:55 5 92 9.7 1023.8 0.0 0.0 NE 1025.6 8.5 9.7 0.0
12-07-2020 02:00 5 92 9.6 1023.8 0.0 0.0 N 1025.6 8.4 9.6 0.0
12-07-2020 02:05 5 92 9.6 1023.7 0.0 2.5 S 1025.5 8.4 9.6 0.0
12-07-2020 02:10 5 92 9.5 1023.6 0.0 0.0 SW 1025.4 8.3 9.5 0.0
12-07-2020 02:15 5 92 9.5 1023.7 0.0 0.0 NW 1025.5 8.3 9.5 0.0
12-07-2020 02:20 5 92 9.5 1023.7 0.0 0.0 N 1025.5 8.3 9.5 0.0
12-07-2020 02:25 5 92 9.5 1023.7 0.0 0.0 SW 1025.5 8.3 9.5 0.0
12-07-2020 02:30 5 92 9.4 1023.7 0.0 0.0 SW 1025.5 8.2 9.4 0.0
12-07-2020 02:35 5 92 9.4 1023.6 0.0 0.0 S 1025.4 8.2 9.4 0.0
12-07-2020 02:40 5 92 9.4 1023.6 0.0 0.0 N 1025.4 8.2 9.4 0.0
12-07-2020 02:45 5 92 9.3 1023.5 0.0 0.0 N 1025.3 8.1 9.3 0.0
12-07-2020 02:50 5 92 9.2 1023.6 0.0 0.0 N 1025.4 8.0 9.2 0.0
12-07-2020 02:55 5 93 9.1 1023.6 0.0 0.0 W 1025.4 8.0 9.1 0.0
12-07-2020 03:00 5 93 9.1 1023.6 0.0 0.0 NW 1025.4 8.0 9.1 0.0
12-07-2020 03:05 5 93 9.2 1023.6 0.0 0.0 N 1025.4 8.1 9.2 0.0
12-07-2020 03:10 5 93 9.2 1023.6 0.0 0.0 NE 1025.4 8.1 9.2 0.0
12-07-2020 03:15 5 93 9.1 1023.5 0.0 0.0 N 1025.3 8.0 9.1 0.0
12-07-2020 03:20 5 93 9.0 1023.5 0.0 0.0 NW 1025.3 7.9 9.0 0.0
12-07-2020 03:25 5 93 8.9 1023.6 0.0 0.0 N 1025.4 7.8 8.9 0.0
12-07-2020 03:30 5 93 8.8 1023.5 0.0 0.0 NW 1025.3 7.7 8.8 0.0
12-07-2020 03:35 5 93 8.9 1023.5 0.0 0.0 N 1025.3 7.8 8.9 0.0
12-07-2020 03:40 5 93 8.8 1023.5 0.0 0.0 NE 1025.3 7.7 8.8 0.0
12-07-2020 03:45 5 93 8.6 1023.4 0.0 0.0 NE 1025.2 7.5 8.6 0.0
12-07-2020 03:50 5 93 8.6 1023.6 0.0 0.0 NE 1025.4 7.5 8.6 0.0
12-07-2020 03:55 5 93 8.5 1023.6 0.0 0.0 NE 1025.4 7.4 8.5 0.0
12-07-2020 04:00 5 94 8.5 1023.5 0.0 0.0 NE 1025.3 7.6 8.5 0.0
12-07-2020 04:05 5 94 8.5 1023.6 0.0 0.0 NE 1025.4 7.6 8.5 0.0
12-07-2020 04:10 5 94 8.6 1023.6 0.0 0.0 N 1025.4 7.7 8.6 0.0
12-07-2020 04:15 5 94 8.6 1023.6 0.0 0.0 NE 1025.4 7.7 8.6 0.0
12-07-2020 04:20 5 94 8.7 1023.6 0.0 0.0 SW 1025.4 7.8 8.7 0.0
12-07-2020 04:25 5 94 8.8 1023.7 0.0 1.1 N 1025.5 7.9 8.8 0.0
12-07-2020 04:30 5 94 8.9 1023.7 0.0 1.1 SE 1025.5 8.0 8.9 0.0
12-07-2020 04:35 5 94 8.8 1023.6 0.0 0.0 NE 1025.4 7.9 8.8 0.0
12-07-2020 04:40 5 94 8.8 1023.7 0.0 0.0 N 1025.5 7.9 8.8 0.0
12-07-2020 04:45 5 94 8.8 1023.6 0.0 1.1 NNW 1025.4 7.9 8.8 0.0
12-07-2020 04:50 5 95 8.9 1023.5 0.0 0.0 NE 1025.3 8.2 8.9 0.0
12-07-2020 04:55 5 95 9.0 1023.6 0.0 2.5 NW 1025.4 8.3 9.0 0.0
12-07-2020 05:00 5 95 9.0 1023.8 0.0 0.0 NW 1025.6 8.3 9.0 0.0
12-07-2020 05:05 5 95 9.1 1023.6 0.0 1.1 N 1025.4 8.4 9.1 0.0
12-07-2020 05:10 5 95 9.1 1023.6 0.0 0.0 W 1025.4 8.4 9.1 0.0
12-07-2020 05:15 5 95 9.1 1023.7 0.0 0.0 NW 1025.5 8.4 9.1 0.0
12-07-2020 05:20 5 95 9.1 1023.6 0.0 0.0 NE 1025.4 8.4 9.1 0.0
12-07-2020 05:25 5 95 9.1 1023.6 0.0 0.0 W 1025.4 8.4 9.1 0.0
12-07-2020 05:30 5 95 9.2 1023.6 0.0 1.1 W 1025.4 8.5 9.2 0.0
12-07-2020 05:35 5 96 9.4 1023.8 0.0 0.0 N 1025.6 8.8 9.4 0.0
12-07-2020 05:40 5 96 9.5 1023.7 0.0 2.5 S 1025.5 8.9 9.5 0.0
12-07-2020 05:45 5 96 9.6 1023.6 0.0 0.0 NW 1025.4 9.0 9.6 0.0
12-07-2020 05:50 5 96 9.6 1023.7 0.0 0.0 SW 1025.5 9.0 9.6 0.0
12-07-2020 05:55 5 96 9.6 1023.8 1.1 3.6 NW 1025.6 9.0 9.6 0.0
12-07-2020 06:00 5 96 9.7 1023.7 0.0 2.5 NW 1025.5 9.1 9.7 0.0
12-07-2020 06:05 5 96 9.7 1023.8 0.0 0.0 NW 1025.6 9.1 9.7 0.0
12-07-2020 06:10 5 96 9.8 1023.9 1.1 2.5 NW 1025.7 9.2 9.8 0.0
12-07-2020 06:15 5 96 9.9 1023.9 0.0 1.1 NW 1025.7 9.3 9.9 0.0
12-07-2020 06:20 5 97 10.2 1023.9 0.0 1.1 S 1025.7 9.8 10.2 0.0
12-07-2020 06:25 5 98 10.9 1023.9 0.0 3.6 NW 1025.7 10.6 10.9 0.0
12-07-2020 06:30 5 98 11.4 1023.9 0.0 1.1 NW 1025.7 11.1 11.4 0.0
12-07-2020 06:35 5 99 12.0 1023.9 1.1 3.6 S 1025.7 11.9 12.0 0.0
12-07-2020 06:40 5 95 12.6 1024.1 0.0 0.0 W 1025.9 11.8 12.6 0.0
12-07-2020 06:45 5 93 13.1 1024.0 0.0 1.1 SW 1025.8 12.0 13.1 0.0
12-07-2020 06:50 5 91 13.5 1024.0 0.0 1.1 N 1025.8 12.1 13.5 0.0
12-07-2020 06:55 5 88 13.8 1024.2 0.0 2.5 SE 1026.0 11.9 13.8 0.0
12-07-2020 07:00 5 84 14.2 1024.1 0.0 2.5 W 1025.9 11.6 14.2 0.0
12-07-2020 07:05 5 80 14.3 1024.0 1.1 2.5 N 1025.8 10.9 14.3 0.0
12-07-2020 07:10 5 78 14.5 1024.1 2.5 5.0 N 1025.9 10.7 14.5 0.0
12-07-2020 07:15 5 76 14.6 1024.2 2.5 3.6 NW 1026.0 10.4 14.6 0.0
12-07-2020 07:20 5 75 14.9 1024.2 1.1 3.6 E 1026.0 10.5 14.9 0.0
12-07-2020 07:25 5 73 15.2 1024.2 2.5 6.1 N 1026.0 10.4 15.2 0.0
12-07-2020 07:30 5 73 15.6 1024.3 1.1 3.6 N 1026.1 10.8 15.6 0.0
12-07-2020 07:35 5 73 15.8 1024.3 2.5 3.6 W 1026.1 11.0 15.8 0.0
12-07-2020 07:40 5 72 16.1 1024.4 2.5 5.0 NWW 1026.2 11.1 16.1 0.0
12-07-2020 07:45 5 72 16.5 1024.5 0.0 0.0 E 1026.3 11.5 16.5 0.0
12-07-2020 07:50 5 70 16.6 1024.3 3.6 5.0 SE 1026.1 11.1 16.6 0.0
12-07-2020 07:55 5 70 16.6 1024.4 3.6 6.1 SSE 1026.2 11.1 16.6 0.0
12-07-2020 08:00 5 71 16.8 1024.4 3.6 5.0 N 1026.2 11.5 16.8 0.0
12-07-2020 08:05 5 71 16.9 1024.5 1.1 5.0 W 1026.3 11.6 16.9 0.0
12-07-2020 08:10 5 70 17.2 1024.4 3.6 6.1 N 1026.2 11.7 17.2 0.0
12-07-2020 08:15 5 64 17.5 1024.5 5.0 9.7 W 1026.3 10.6 17.5 0.0
12-07-2020 08:20 5 65 17.6 1024.5 3.6 6.1 SW 1026.3 11.0 17.6 0.0
12-07-2020 08:25 5 64 17.8 1024.7 3.6 6.1 SW 1026.5 10.9 17.8 0.0
12-07-2020 08:30 5 63 17.8 1024.6 6.1 9.7 N 1026.4 10.7 17.8 0.0
12-07-2020 08:35 5 62 17.6 1024.8 6.1 9.7 W 1026.6 10.3 17.6 0.0
12-07-2020 08:40 5 63 17.6 1024.9 5.0 7.2 SW 1026.7 10.5 17.6 0.0
12-07-2020 08:45 5 63 17.6 1025.0 5.0 7.2 NW 1026.8 10.5 17.6 0.0
12-07-2020 08:50 5 67 17.4 1025.0 3.6 5.0 NE 1026.8 11.2 17.4 0.0
12-07-2020 08:55 5 64 17.7 1025.1 5.0 7.2 NWW 1026.9 10.8 17.7 0.0
12-07-2020 09:00 5 63 17.8 1025.1 3.6 6.1 S 1026.9 10.7 17.8 0.0
12-07-2020 09:05 5 65 17.3 1025.2 5.0 9.7 NW 1027.0 10.7 17.3 0.0
12-07-2020 09:10 5 62 17.7 1025.2 7.2 11.2 SWW 1027.0 10.4 17.0 0.0
12-07-2020 09:15 5 61 17.9 1025.1 9.7 13.3 NW 1026.9 10.3 16.2 0.0
12-07-2020 09:20 5 61 18.3 1025.0 6.1 11.2 SW 1026.8 10.7 18.3 0.0
12-07-2020 09:25 5 60 18.4 1025.0 8.6 12.2 N 1026.8 10.5 17.1 0.0
12-07-2020 09:30 5 59 18.6 1025.1 5.0 7.2 SW 1026.9 10.5 18.6 0.0
12-07-2020 09:35 5 59 19.0 1025.1 8.6 12.2 SW 1026.9 10.8 17.8 0.0
12-07-2020 09:40 5 55 18.2 1025.2 7.2 11.2 NW 1027.0 9.0 17.5 0.0
12-07-2020 09:45 5 60 18.5 1025.1 6.1 8.6 SW 1026.9 10.6 18.5 0.0
12-07-2020 09:50 5 55 18.7 1025.1 8.6 15.8 W 1026.9 9.5 17.5 0.0
12-07-2020 09:55 5 57 18.3 1025.2 5.0 9.7 N 1027.0 9.7 18.3 0.0
12-07-2020 10:00 5 59 18.1 1025.2 7.2 9.7 NE 1027.0 10.0 17.4 0.0
12-07-2020 10:05 5 60 18.3 1025.3 6.1 11.2 NW 1027.1 10.4 18.3 0.0
12-07-2020 10:10 5 57 18.1 1025.2 8.6 13.3 N 1027.0 9.5 16.8 0.0
12-07-2020 10:15 5 57 17.6 1025.4 6.1 9.7 W 1027.2 9.0 17.6 0.0
12-07-2020 10:20 5 60 16.9 1025.3 7.2 9.7 W 1027.1 9.1 16.1 0.0
12-07-2020 10:25 5 57 17.7 1025.4 7.2 11.2 NW 1027.2 9.1 17.0 0.0
12-07-2020 10:30 5 58 18.8 1025.4 5.0 7.2 W 1027.2 10.4 18.8 0.0
12-07-2020 10:35 5 52 19.2 1025.5 9.7 14.8 W 1027.3 9.1 17.6 0.0
12-07-2020 10:40 5 54 19.5 1025.5 6.1 9.7 NE 1027.3 10.0 19.5 0.0
12-07-2020 10:45 5 53 19.6 1025.5 12.2 14.8 NW 1027.3 9.8 17.4 0.0
12-07-2020 10:50 5 53 19.5 1025.4 5.0 7.2 W 1027.2 9.7 19.5 0.0
12-07-2020 10:55 5 54 19.8 1025.6 5.0 7.2 N 1027.4 10.2 19.8 0.0
12-07-2020 11:00 5 52 19.5 1025.4 5.0 7.2 W 1027.2 9.4 19.5 0.0
12-07-2020 11:05 5 53 18.7 1025.4 8.6 19.4 NW 1027.2 9.0 17.5 0.0
12-07-2020 11:10 5 54 17.8 1025.6 6.1 9.7 N 1027.4 8.4 17.8 0.0
12-07-2020 11:15 5 60 17.4 1025.7 5.0 7.2 W 1027.5 9.6 17.4 0.0
12-07-2020 11:20 5 59 17.5 1025.6 8.6 13.3 N 1027.4 9.4 16.2 0.0
12-07-2020 11:25 5 54 19.0 1025.6 6.1 13.3 N 1027.4 9.5 19.0 0.0
12-07-2020 11:30 5 52 18.9 1025.6 8.6 12.2 SW 1027.4 8.9 17.7 0.0
12-07-2020 11:35 5 52 18.7 1025.5 8.6 12.2 W 1027.3 8.7 17.5 0.0
12-07-2020 11:40 5 54 19.6 1025.7 8.6 11.2 N 1027.5 10.1 18.4 0.0
12-07-2020 11:45 5 51 20.0 1025.6 8.6 13.3 NW 1027.4 9.6 18.9 0.0
12-07-2020 11:50 5 53 19.4 1025.6 5.0 7.2 NW 1027.4 9.6 19.4 0.0
12-07-2020 11:55 5 53 18.8 1025.7 8.6 9.7 NW 1027.5 9.0 17.6 0.0
12-07-2020 12:00 5 55 18.2 1025.7 11.2 15.8 N 1027.5 9.0 16.1 0.0
12-07-2020 12:05 5 55 18.0 1025.6 7.2 9.7 NW 1027.4 8.8 17.3 0.0
12-07-2020 12:10 5 54 19.1 1025.8 6.1 9.7 W 1027.6 9.6 19.1 0.6
12-07-2020 12:15 5 53 18.7 1025.7 5.0 7.2 NW 1027.5 9.0 18.7 0.6
12-07-2020 12:20 5 56 18.3 1025.8 9.7 12.2 N 1027.6 9.4 16.6 0.6
12-07-2020 12:25 5 58 19.1 1025.8 6.1 11.2 N 1027.6 10.7 19.1 0.6
12-07-2020 12:30 5 55 18.8 1025.8 5.0 8.6 W 1027.6 9.6 18.8 0.6
12-07-2020 12:35 5 55 18.4 1025.7 6.1 11.2 W 1027.5 9.2 18.4 0.6
12-07-2020 12:40 5 56 19.5 1025.9 6.1 9.7 NW 1027.7 10.5 19.5 0.6
12-07-2020 12:45 5 52 20.1 1025.9 6.1 9.7 W 1027.7 10.0 20.1 0.6
12-07-2020 12:50 5 53 20.5 1025.9 6.1 9.7 N 1027.7 10.6 20.5 0.6
12-07-2020 12:55 5 52 21.0 1025.9 5.0 6.1 NW 1027.7 10.8 21.0 0.6
12-07-2020 13:00 5 50 21.0 1025.8 6.1 13.3 W 1027.6 10.2 21.0 0.6
12-07-2020 13:05 5 51 20.4 1025.8 7.2 9.7 NE 1027.6 10.0 19.8 0.6
12-07-2020 13:10 5 53 20.3 1025.9 3.6 7.2 NW 1027.7 10.4 20.3 0.0
12-07-2020 13:15 5 51 20.2 1025.9 3.6 5.0 W 1027.7 9.8 20.2 0.0
12-07-2020 13:20 5 52 20.5 1025.9 8.6 12.2 NE 1027.7 10.3 19.4 0.0
12-07-2020 13:25 5 50 21.0 1025.8 7.2 11.2 W 1027.6 10.2 20.4 0.0
12-07-2020 13:30 5 47 20.6 1025.8 7.2 9.7 NW 1027.6 8.9 20.0 0.0
12-07-2020 13:35 5 48 20.9 1025.8 9.7 14.8 W 1027.6 9.5 19.5 0.0
12-07-2020 13:40 5 49 20.6 1025.8 6.1 11.2 NWW 1027.6 9.5 20.6 0.0
12-07-2020 13:45 5 50 20.8 1025.8 11.2 15.8 NW 1027.6 10.0 19.0 0.0
12-07-2020 13:50 5 50 20.7 1025.9 8.6 12.2 NW 1027.7 9.9 19.6 0.0
12-07-2020 13:55 5 50 20.9 1025.9 6.1 8.6 W 1027.7 10.1 20.9 0.0
12-07-2020 14:00 5 51 21.2 1025.9 5.0 7.2 SW 1027.7 10.7 21.2 0.0
12-07-2020 14:05 5 50 21.1 1025.9 7.2 14.8 NE 1027.7 10.3 20.5 0.0
12-07-2020 14:10 5 48 20.5 1025.9 8.6 12.2 W 1027.7 9.1 19.4 0.0
12-07-2020 14:15 5 51 20.4 1025.9 6.1 12.2 SSW 1027.7 10.0 20.4 0.0
12-07-2020 14:20 5 50 20.0 1025.9 6.1 8.6 S 1027.7 9.3 20.0 0.0
12-07-2020 14:25 5 51 20.0 1026.0 7.2 11.2 W 1027.8 9.6 19.4 0.0
12-07-2020 14:30 5 51 19.6 1026.1 8.6 13.3 NWW 1027.9 9.2 18.4 0.0
12-07-2020 14:35 5 51 19.2 1026.1 7.2 15.8 NW 1027.9 8.8 18.5 0.0
12-07-2020 14:40 5 52 19.0 1026.1 5.0 7.2 NWW 1027.9 8.9 19.0 0.0
12-07-2020 14:45 5 52 18.9 1026.2 6.1 8.6 NWW 1028.0 8.9 18.9 0.0
12-07-2020 14:50 5 52 18.8 1026.3 8.6 12.2 E 1028.1 8.8 17.6 0.0
12-07-2020 14:55 5 51 18.5 1026.2 7.2 11.2 W 1028.0 8.2 17.8 0.0
12-07-2020 15:00 5 54 18.4 1026.3 6.1 8.6 W 1028.1 8.9 18.4 0.0
12-07-2020 15:05 5 53 18.1 1026.3 6.1 8.6 NW 1028.1 8.4 18.1 0.0
12-07-2020 15:10 5 54 17.9 1026.4 7.2 11.2 N 1028.2 8.5 17.2 0.0
12-07-2020 15:15 5 57 17.9 1026.4 3.6 5.0 SWW 1028.2 9.3 17.9 0.0
12-07-2020 15:20 5 58 18.3 1026.3 5.0 7.2 NNW 1028.1 9.9 18.3 0.0
12-07-2020 15:25 5 56 18.5 1026.3 6.1 8.6 NW 1028.1 9.6 18.5 0.0
12-07-2020 15:30 5 55 18.7 1026.4 8.6 11.2 NE 1028.2 9.5 17.5 0.0
12-07-2020 15:35 5 56 19.0 1026.4 2.5 6.1 NEE 1028.2 10.0 19.0 0.0
12-07-2020 15:40 5 53 19.5 1026.3 7.2 11.2 W 1028.1 9.7 18.8 0.0
12-07-2020 15:45 5 53 19.8 1026.3 8.6 12.2 W 1028.1 10.0 18.7 0.0
12-07-2020 15:50 5 53 19.6 1026.4 6.1 12.2 NW 1028.2 9.8 19.6 0.0
12-07-2020 15:55 5 54 19.5 1026.4 7.2 11.2 N 1028.2 10.0 18.8 0.0
12-07-2020 16:00 5 56 19.4 1026.5 6.1 12.2 W 1028.3 10.4 19.4 0.0
12-07-2020 16:05 5 54 19.3 1026.3 5.0 8.6 NW 1028.1 9.8 19.3 0.0
12-07-2020 16:10 5 55 18.9 1026.4 8.6 11.2 SW 1028.2 9.7 17.7 0.0
12-07-2020 16:15 5 56 19.0 1026.5 6.1 9.7 NE 1028.3 10.0 19.0 0.0
12-07-2020 16:20 5 55 19.1 1026.4 7.2 8.6 W 1028.2 9.9 18.4 0.0
12-07-2020 16:25 5 54 19.1 1026.4 5.0 8.6 N 1028.2 9.6 19.1 0.0
12-07-2020 16:30 5 54 19.1 1026.3 6.1 8.6 NW 1028.1 9.6 19.1 0.0
12-07-2020 16:35 5 54 19.0 1026.4 8.6 12.2 NW 1028.2 9.5 17.8 0.0
12-07-2020 16:40 5 53 19.1 1026.2 7.2 11.2 NWW 1028.0 9.3 18.4 0.0
12-07-2020 16:45 5 53 19.2 1026.3 8.6 12.2 N 1028.1 9.4 18.0 0.0
12-07-2020 16:50 5 53 19.3 1026.2 6.1 9.7 NEE 1028.0 9.5 19.3 0.0
12-07-2020 16:55 5 53 19.3 1026.2 7.2 11.2 NW 1028.0 9.5 18.6 0.0
12-07-2020 17:00 5 52 19.4 1026.3 6.1 9.7 W 1028.1 9.3 19.4 0.0
12-07-2020 17:05 5 51 19.4 1026.1 7.2 11.2 NW 1027.9 9.0 18.7 0.0
12-07-2020 17:10 5 53 19.4 1026.1 5.0 8.6 E 1027.9 9.6 19.4 0.0
12-07-2020 17:15 5 52 19.3 1026.2 9.7 13.3 E 1028.0 9.2 17.8 0.0
12-07-2020 17:20 5 53 19.4 1026.0 9.7 13.3 E 1027.8 9.6 17.9 0.0
12-07-2020 17:25 5 53 19.6 1026.3 3.6 6.1 NW 1028.1 9.8 19.6 0.0
12-07-2020 17:30 5 52 19.6 1026.1 5.0 6.1 W 1027.9 9.5 19.6 0.0
12-07-2020 17:35 5 55 19.7 1026.0 5.0 9.7 N 1027.8 10.4 19.7 0.0
12-07-2020 17:40 5 52 20.1 1026.1 7.2 12.2 SW 1027.9 10.0 19.5 0.0
12-07-2020 17:45 5 51 20.0 1026.1 7.2 9.7 W 1027.9 9.6 19.4 0.0
12-07-2020 17:50 5 52 19.8 1026.1 8.6 12.2 NWW 1027.9 9.7 18.7 0.0
12-07-2020 17:55 5 53 19.6 1026.1 7.2 11.2 NNW 1027.9 9.8 18.9 0.0
12-07-2020 18:00 5 54 19.4 1025.9 6.1 7.2 W 1027.7 9.9 19.4 0.0
12-07-2020 18:05 5 53 19.2 1025.9 8.6 12.2 W 1027.7 9.4 18.0 0.0
12-07-2020 18:10 5 55 19.0 1025.9 3.6 5.0 NWW 1027.7 9.8 19.0 0.0
12-07-2020 18:15 5 56 19.0 1025.9 5.0 7.2 W 1027.7 10.0 19.0 0.0
12-07-2020 18:20 5 57 18.9 1025.9 3.6 6.1 NW 1027.7 10.2 18.9 0.0
12-07-2020 18:25 5 57 18.7 1026.0 6.1 9.7 NW 1027.8 10.0 18.7 0.0
12-07-2020 18:30 5 58 18.6 1026.0 5.0 8.6 NW 1027.8 10.2 18.6 0.0
12-07-2020 18:35 5 57 18.6 1026.0 3.6 6.1 NEE 1027.8 9.9 18.6 0.0
12-07-2020 18:40 5 57 18.5 1026.0 5.0 8.6 NW 1027.8 9.8 18.5 0.0
12-07-2020 18:45 5 57 18.4 1026.0 3.6 6.1 W 1027.8 9.8 18.4 0.0
12-07-2020 18:50 5 57 18.3 1025.9 2.5 5.0 W 1027.7 9.7 18.3 0.0
12-07-2020 18:55 5 58 18.3 1025.9 3.6 7.2 NW 1027.7 9.9 18.3 0.0
12-07-2020 19:00 5 57 18.1 1025.9 3.6 6.1 W 1027.7 9.5 18.1 0.0
12-07-2020 19:05 5 57 17.9 1025.9 6.1 8.6 E 1027.7 9.3 17.9 0.0
12-07-2020 19:10 5 58 17.8 1025.8 3.6 6.1 SW 1027.6 9.4 17.8 0.0
12-07-2020 19:15 5 59 17.7 1025.8 5.0 7.2 W 1027.6 9.6 17.7 0.0
12-07-2020 19:20 5 58 17.6 1026.0 5.0 7.2 SW 1027.8 9.3 17.6 0.0
12-07-2020 19:25 5 60 17.5 1025.9 5.0 6.1 W 1027.7 9.7 17.5 0.0
12-07-2020 19:30 5 62 17.4 1025.8 3.6 5.0 SW 1027.6 10.1 17.4 0.0
12-07-2020 19:35 5 63 17.4 1025.7 3.6 6.1 N 1027.5 10.3 17.4 0.0
12-07-2020 19:40 5 63 17.4 1025.7 2.5 5.0 N 1027.5 10.3 17.4 0.0
12-07-2020 19:45 5 63 17.4 1025.8 5.0 8.6 N 1027.6 10.3 17.4 0.0
12-07-2020 19:50 5 64 17.3 1025.7 7.2 12.2 NEE 1027.5 10.4 16.5 0.0
12-07-2020 19:55 5 63 17.3 1025.7 3.6 7.2 NW 1027.5 10.2 17.3 0.0
12-07-2020 20:00 5 64 17.3 1025.5 2.5 5.0 W 1027.3 10.4 17.3 0.0
12-07-2020 20:05 5 64 17.3 1025.6 1.1 3.6 N 1027.4 10.4 17.3 0.0
12-07-2020 20:10 5 65 17.3 1025.5 2.5 3.6 NE 1027.3 10.7 17.3 0.0
12-07-2020 20:15 5 65 17.2 1025.6 2.5 3.6 SW 1027.4 10.6 17.2 0.0
12-07-2020 20:20 5 64 17.1 1025.6 3.6 5.0 N 1027.4 10.3 17.1 0.0
12-07-2020 20:25 5 64 17.1 1025.6 3.6 5.0 N 1027.4 10.3 17.1 0.0
12-07-2020 20:30 5 65 17.0 1025.5 2.5 5.0 NW 1027.3 10.4 17.0 0.0
12-07-2020 20:35 5 65 17.0 1025.5 3.6 5.0 SW 1027.3 10.4 17.0 0.0
12-07-2020 20:40 5 65 17.0 1025.5 2.5 5.0 N 1027.3 10.4 17.0 0.0
12-07-2020 20:45 5 67 16.9 1025.5 1.1 2.5 NW 1027.3 10.8 16.9 0.0
12-07-2020 20:50 5 67 16.8 1025.6 0.0 2.5 NE 1027.4 10.7 16.8 0.0
12-07-2020 20:55 5 68 16.8 1025.6 0.0 1.1 NW 1027.4 10.9 16.8 0.0
12-07-2020 21:00 5 67 16.8 1025.5 1.1 2.5 N 1027.3 10.7 16.8 0.0
12-07-2020 21:05 5 68 16.7 1025.5 2.5 3.6 W 1027.3 10.8 16.7 0.0
12-07-2020 21:10 5 68 16.7 1025.5 0.0 0.0 W 1027.3 10.8 16.7 0.0
12-07-2020 21:15 5 68 16.6 1025.4 0.0 0.0 NW 1027.2 10.7 16.6 0.0
12-07-2020 21:20 5 68 16.6 1025.5 0.0 1.1 S 1027.3 10.7 16.6 0.0
12-07-2020 21:25 5 68 16.5 1025.5 0.0 1.1 N 1027.3 10.6 16.5 0.0
12-07-2020 21:30 5 69 16.4 1025.4 0.0 0.0 N 1027.2 10.7 16.4 0.0
12-07-2020 21:35 5 69 16.3 1025.5 0.0 0.0 NE 1027.3 10.6 16.3 0.0
12-07-2020 21:40 5 70 16.0 1025.5 0.0 0.0 NE 1027.3 10.6 16.0 0.0
12-07-2020 21:45 5 71 15.8 1025.5 0.0 0.0 N 1027.3 10.6 15.8 0.0
12-07-2020 21:50 5 71 15.6 1025.5 0.0 0.0 NW 1027.3 10.4 15.6 0.0
12-07-2020 21:55 5 71 15.4 1025.5 0.0 0.0 S 1027.3 10.2 15.4 0.0
12-07-2020 22:00 5 72 15.2 1025.6 0.0 0.0 N 1027.4 10.2 15.2 0.0
12-07-2020 22:05 5 72 15.2 1025.8 0.0 0.0 N 1027.6 10.2 15.2 0.0
12-07-2020 22:10 5 73 15.0 1025.7 0.0 1.1 N 1027.5 10.2 15.0 0.0
12-07-2020 22:15 5 73 14.8 1025.6 0.0 0.0 N 1027.4 10.0 14.8 0.0
12-07-2020 22:20 5 73 14.6 1025.7 0.0 0.0 N 1027.5 9.8 14.6 0.0
12-07-2020 22:25 5 74 14.2 1025.6 0.0 0.0 N 1027.4 9.7 14.2 0.0
12-07-2020 22:30 5 75 14.1 1025.7 0.0 0.0 N 1027.5 9.8 14.1 0.0
12-07-2020 22:35 5 75 13.9 1025.6 0.0 0.0 N 1027.4 9.6 13.9 0.0
12-07-2020 22:40 5 75 13.8 1025.4 0.0 1.1 N 1027.2 9.5 13.8 0.0
12-07-2020 22:45 5 76 13.5 1025.5 0.0 1.1 N 1027.3 9.4 13.5 0.0
12-07-2020 22:50 5 76 13.4 1025.5 0.0 0.0 N 1027.3 9.3 13.4 0.0
12-07-2020 22:55 5 76 13.1 1025.5 0.0 1.1 NW 1027.3 9.0 13.1 0.0
12-07-2020 23:00 5 77 13.1 1025.5 0.0 0.0 NE 1027.3 9.2 13.1 0.0
12-07-2020 23:05 5 77 13.0 1025.6 0.0 1.1 N 1027.4 9.1 13.0 0.0
12-07-2020 23:10 5 78 12.8 1025.6 0.0 0.0 N 1027.4 9.1 12.8 0.0
12-07-2020 23:15 5 78 12.6 1025.6 0.0 0.0 NW 1027.4 8.9 12.6 0.0
12-07-2020 23:20 5 78 12.6 1025.7 0.0 0.0 NW 1027.5 8.9 12.6 0.0
12-07-2020 23:25 5 79 12.5 1025.6 0.0 0.0 NE 1027.4 9.0 12.5 0.0
12-07-2020 23:30 5 82 12.3 1025.6 0.0 1.1 NW 1027.4 9.3 12.3 0.0
12-07-2020 23:35 5 82 12.3 1025.5 0.0 0.0 N 1027.3 9.3 12.3 0.0
12-07-2020 23:40 5 83 12.2 1025.4 0.0 0.0 N 1027.2 9.4 12.2 0.0
12-07-2020 23:45 5 83 12.0 1025.4 0.0 0.0 N 1027.2 9.2 12.0 0.0
12-07-2020 23:50 5 83 12.0 1025.5 0.0 0.0 NE 1027.3 9.2 12.0 0.0
12-07-2020 23:55 5 83 12.0 1025.5 0.0 0.0 N 1027.3 9.2 12.0 0.0

 

Tagesdaten                                                            Tabelle: 08 : 00 UHR

STATIONHÖHELUFTD.TEMP.T-MinT-MaxU%RR1RR12SSSDDFFFXWetter+WolkenBöen
UFS TW Ems 0 ------ --- --- --- --- ---- --- --- -- --- --- --- ---
UFS Deutsche Bucht 0 1026.9 14.4 14.0 14.8 74 ---- --- --- NW 14 --- --- ---
Helgoland 4 1026.7 15.0 13.7 15.3 72 0.0 0 --- W 17 24 --- ---
List/Sylt 26 1025.4 14.8 13.0 15.0 70 0.0 0 0 W 30 45 --- ---
Schleswig 43 1025.8 13.3 8.8 15.2 81 0.0 0 --- W 9 17 wolkenlos ---
Leuchtturm Kiel 5 1025.7 13.2 11.4 15.9 78 ---- --- --- W 27 32 --- ---
Kiel 27 1025.8 13.1 9.4 16.1 80 0.0 0 --- W 13 20 wolkenlos ---
Fehmarn 3 1025.3 14.3 13.6 16.3 75 0.0 0 --- W 28 36 --- ---
Arkona 42 1024.3 13.8 12.9 15.9 78 0.0 0 --- W 24 36 --- ---
Norderney 11 1027.3 15.4 14.2 16.3 70 0.0 0 --- W 13 21 wolkenlos ---
Leuchtt. Alte Weser 32 1026.8 14.5 14.2 15.3 73 ---- --- --- NW 22 --- --- ---
Cuxhaven 5 1026.8 15.0 12.2 16.1 70 0.0 0 --- W 15 27 --- ---
Hamburg-Flh. 11 1026.7 12.9 7.1 16.6 80 0.0 0 0 W 10 18 heiter ---
Schwerin 59 1026.4 12.6 9.5 17.8 83 0.0 0 --- W 13 18 wolkenlos ---
Rostock 4 1025.4 14.8 13.7 16.7 73 0.0 0 --- W 23 33 wolkenlos ---
Greifswald 2 1025.2 13.5 9.5 17.3 74 0.0 0 0 W 9 17 heiter ---
Emden 0 1027.6 13.4 8.3 16.1 86 0.0 0 --- W 7 15 --- ---
Bremen-Flh. 5 1027.7 12.2 6.7 15.9 92 0.0 0 0 W 5 8 heiter ---
Lüchow 17 1027.3 12.9 6.2 18.2 83 0.0 0 --- W 8 12 wolkenlos ---
Marnitz 81 1026.5 12.7 8.6 17.3 77 0.0 0 --- NW 10 18 wolkenlos ---
Waren 70 1026.1 13.2 9.1 16.3 78 0.0 0 --- W 11 18 wolkenlos ---
Neuruppin 38 1026.7 13.1 8.4 18.8 78 0.0 0 --- W 5 11 --- ---
Angermünde 56 1026.0 13.9 9.1 17.4 77 0.0 0 0 W 11 18 wolkenlos ---
Münster/Osnabr.-Flh. 48 1028.0 11.6 7.4 15.9 88 0.0 0 0 SW 3 4 Nebel ---
Hannover-Flh. 59 1027.8 12.1 8.4 17.7 94 0.0 0 0 W 6 11 heiter ---
Magdeburg 76 1027.7 13.5 8.5 17.3 77 0.0 0 --- W 5 9 --- ---
Potsdam 81 1027.0 12.4 9.5 17.7 84 0.0 0 0 NW 8 12 heiter ---
Berlin-Tegel 37 1026.8 13.9 8.6 18.4 72 0.0 0 0 W 9 15 heiter ---
Berlin-Tempelhof 48 1026.7 14.6 10.4 18.7 69 0.0 0 --- NW 14 20 --- ---
Berlin-Dahlem 51 1026.7 13.2 8.7 17.9 --- ---- 0 0 N 11 --- heiter ---
Lindenberg 91 1026.4 13.1 9.0 19.0 78 0.0 0 --- NW 9 15 wolkenlos ---
Düsseldorf-Flh. 45 1028.0 12.9 8.0 18.0 85 0.0 0 0 N 6 9 heiter ---
Essen 150 1028.0 13.6 9.8 17.3 84 0.0 0 --- N 5 9 wolkenlos ---
Kahler Asten 839 ------ 10.0 7.8 12.9 82 0.0 0 --- N 9 16 wolkenlos ---
Bad Lippspringe 157 1027.9 12.3 6.8 14.8 86 0.0 0 --- S 4 6 wolkenlos ---
Fritzlar 174 1028.0 11.1 7.2 19.7 85 ---- 0 --- NW 7 --- --- ---
Brocken 1142 ------ 6.4 5.3 9.0 93 ---- --- --- N 14 23 --- ---
Leipzig-Flh. 142 1027.4 13.8 9.5 19.2 71 0.0 0 0 N 5 9 heiter ---
Dresden-Flh. 227 1027.1 13.5 8.7 18.8 65 0.0 0 0 W 10 15 heiter ---
Cottbus 69 1026.2 14.0 7.2 19.4 70 0.0 0 --- W 6 13 wolkenlos ---
Görlitz 238 1026.2 14.1 8.9 18.7 68 0.0 0 --- W 7 15 wolkenlos ---
Aachen 231 1028.1 12.7 8.9 16.0 81 0.0 0 --- O 3 6 wolkenlos ---
Nürburg 485 1028.0 10.4 7.0 14.5 77 0.0 0 --- SO 2 6 wolkenlos ---
Köln/Bonn-Flh. 92 1028.0 12.0 7.1 17.8 89 0.0 0 0 SO 5 9 heiter ---
Gießen/Wettenberg 203 1027.6 12.5 7.3 19.4 73 0.0 0 --- O 4 5 wolkenlos ---
Wasserkuppe 921 ------ 11.8 8.4 13.3 60 0.0 0 0 O 8 12 wolkenlos ---
Meiningen 450 1027.7 10.0 6.2 16.8 81 0.0 0 --- NO 3 5 --- ---
Erfurt 316 1027.9 11.2 6.0 17.6 78 0.0 0 0 SW 6 9 heiter ---
Gera 311 1027.8 11.7 6.5 17.6 75 0.0 0 --- S 3 8 wolkenlos ---
Fichtelberg 1213 ------ 8.9 5.2 10.2 74 ---- --- --- NO 7 13 wolkenlos ---
Trier 265 1027.2 11.8 8.5 20.9 77 0.0 0 --- NO 9 18 wolkenlos ---
Hahn-Flh. 497 1027.0 12.4 9.4 17.3 72 0.0 0 --- NO 8 12 --- ---
Frankfurt/M-Flh. 112 1026.8 15.8 11.4 21.0 59 0.0 0 0 NO 13 21 heiter ---
OF-Wetterpark 119 1026.9 14.0 8.8 20.5 69 0.0 0 --- NO 8 14 wolkenlos ---
Würzburg 268 1027.1 14.4 9.5 19.8 62 0.0 0 --- O 4 10 wolkenlos ---
Bamberg 239 1027.0 12.9 5.1 19.9 67 0.0 0 --- N 5 11 wolkenlos ---
Hof 567 1027.4 11.0 6.1 16.1 73 0.0 0 --- N 6 9 wolkenlos ---
Weiden 438 1027.3 11.0 7.7 18.5 73 0.0 0 --- NW 4 7 wolkenlos ---
Saarbrücken-Flh. 320 1026.3 13.6 9.9 20.0 66 0.0 0 0 NO 15 23 wolkenlos ---
Karlsruhe-Rheinst. 116 1026.2 14.6 8.6 22.0 62 0.0 0 --- NO 14 21 wolkenlos ---
Mannheim 96 1026.5 14.0 9.2 21.5 66 0.0 0 --- NW 5 10 wolkenlos ---
Stuttgart-Flh. 371 1026.2 12.7 8.5 20.0 75 0.0 0 --- O 3 5 heiter ---
Öhringen 276 1026.4 13.8 8.7 20.2 66 0.0 0 --- NO 5 10 wolkenlos ---
Nürnberg-Flh. 314 1026.9 12.7 6.8 19.8 69 0.0 0 0 NW 3 8 heiter ---
Regensburg 366 1026.2 14.3 10.4 19.6 84 0.0 0 --- NO 4 8 --- ---
Straubing 351 1026.2 13.8 10.4 19.1 89 0.0 0 --- O 8 10 --- ---
Großer Arber 1436 ------ 8.3 6.0 9.1 63 0.0 0 --- NO 5 9 --- ---
Lahr 155 1025.4 13.2 8.6 22.3 70 0.0 0 --- NO 9 13 wolkenlos ---
Freudenstadt 797 ------ 13.0 9.1 17.3 60 0.0 0 --- NO 9 15 wolkenlos ---
Stötten 734 1024.9 14.1 10.8 16.7 62 0.0 0 --- NO 6 8 wolkenlos ---
Augsburg 462 1025.6 13.4 7.1 18.9 84 0.0 0 --- N 3 4 --- ---
München-Flh. 444 1026.2 11.4 7.3 16.2 100 0.0 0 0 NO 9 11 Nebel ---
Fürstenzell 476 1026.6 11.3 10.8 15.2 100 0.0 0 --- NO 7 11 Nebel ---
Feldberg/Schw. 1486 ------ 8.1 6.9 10.3 68 0.0 0 0 O 25 36 wolkenlos ---
Konstanz 443 1024.7 13.9 11.2 17.5 75 0.0 0 --- N 5 8 wolkenlos ---
Kempten 705 1025.6 10.1 9.0 14.6 98 0.0 1 --- S 3 8 Nebel ---
Oberstdorf 806 ------ 9.9 6.1 13.6 87 0.0 0 --- - 0 5 Nebel ---
Zugspitze 2960 ------ -1.8 -2.6 -0.7 95 ---- --- 66 N 3 15 gefrierender Nebel ---
Hohenpeißenberg 977 ------ 12.6 9.9 13.2 77 0.0 1 --- O 5 13 --- ---

                                                                                           Tabelle: 20 : 00 UHR

STATIONHÖHELUFTD.TEMP.T-MinT-MaxU%RR1RR12SSSDDFFFXWetter+WolkenBöen
UFS TW Ems 0 ------ --- --- --- --- ---- --- --- -- --- --- --- ---
UFS Deutsche Bucht 26 1027.5 15.8 13.7 15.8 78 ---- --- --- W 18 --- --- ---
Helgoland 4 1027.5 16.6 14.7 17.6 70 0.0 0 --- W 17 25 --- ---
List/Sylt 26 1026.7 15.8 14.4 18.2 73 0.0 0 0 W 25 37 --- ---
Schleswig 43 1026.6 16.7 13.3 19.9 69 0.0 0 --- W 12 31 --- ---
Leuchtturm Kiel 5 1026.1 17.2 13.1 17.5 59 ---- --- --- NW 33 37 --- ---
Kiel 27 1026.2 17.5 13.2 18.9 58 0.0 0 --- W 19 33 --- ---
Fehmarn 3 1025.9 16.9 13.8 17.2 72 0.0 0 --- W 26 33 --- ---
Arkona 42 1024.8 15.6 13.8 17.1 71 0.0 0 --- W 37 53 --- Windböen
Norderney 11 1027.9 16.6 14.9 18.0 71 0.0 0 --- NW 16 22 --- ---
Leuchtt. Alte Weser 32 1027.5 15.7 14.2 16.0 68 ---- --- --- NW 22 --- --- ---
Cuxhaven 5 1027.5 16.8 15.0 18.3 60 0.0 0 --- NW 17 25 wolkenlos ---
Hamburg-Flh 11 1026.8 18.3 12.9 19.9 47 0.0 0 0 NW 14 25 heiter ---
Schwerin 59 1026.5 17.6 12.7 18.7 55 0.0 0 --- NW 14 22 --- ---
Rostock 4 1026.1 16.9 14.5 18.0 72 0.0 0 --- W 15 27 --- ---
Greifswald 2 1025.7 16.3 13.2 18.5 65 0.0 1 0 W 17 36 stark bewölkt ---
Emden 0 1027.9 16.4 13.7 19.1 62 0.0 0 --- NW 11 20 --- ---
Bremen-Flh. 5 1027.1 18.9 12.2 20.8 61 0.0 0 0 NO 13 26 heiter ---
Lüchow 17 1026.9 18.8 12.9 21.1 53 0.0 0 --- N 9 14 --- ---
Marnitz 81 1026.5 17.2 12.8 20.1 57 0.0 0 --- N 5 21 --- ---
Waren 70 1026.3 16.9 13.1 19.7 56 0.0 0 --- NW 10 25 --- ---
Neuruppin 38 1026.6 17.5 13.0 20.8 53 0.0 0 --- NW 6 26 --- ---
Angermünde 56 1026.1 17.7 13.9 21.1 52 0.0 0 0 NW 15 30 --- ---
Münster/Osnabr.-Flh. 48 1027.0 19.5 11.6 21.5 46 0.0 0 0 N 9 15 heiter ---
Hannover-Flh. 59 1026.8 20.1 11.9 21.4 41 0.0 0 0 NW 8 18 heiter ---
Magdeburg 76 1026.4 20.4 13.6 22.1 36 0.0 0 --- N 13 21 wolkenlos ---
Potsdam 81 1026.3 18.7 12.4 22.2 48 0.0 0 --- NW 10 26 --- ---
Berlin-Tegel 37 1026.4 18.5 13.7 21.1 47 0.0 0 0 NW 11 24 bewölkt ---
Berlin-Tempelhof 48 1026.2 19.2 14.6 21.9 45 0.0 0 --- NW 18 28 --- ---
Berlin-Dahlem 51 1026.1 19.0 13.2 21.1 --- ---- 0 0 NW 14 --- stark bewölkt ---
Lindenberg 91 1025.8 18.4 13.3 21.4 46 0.0 0 --- NW 7 22 --- ---
Düsseldorf-Flh. 45 1026.3 21.3 12.9 22.8 42 0.0 0 0 N 10 21 heiter ---
Essen 150 1026.4 20.0 13.5 21.2 44 0.0 0 --- NO 7 15 --- ---
Kahler Asten 839 ------ 14.7 9.9 15.9 54 0.0 0 --- NO 8 17 --- ---
Bad Lippspringe 157 1026.5 19.3 12.4 21.4 46 0.0 0 --- NO 12 18 --- ---
Fritzlar 174 1025.8 20.3 11.1 22.3 39 ---- 0 0 N 11 --- heiter ---
Brocken 1142 ------ 10.2 6.4 13.1 66 ---- --- --- N 15 25 wolkenlos ---
Leipzig-Flh. 142 1025.9 20.3 13.8 22.5 37 0.0 0 0 N 8 22 heiter ---
Dresden-Flh. 227 1025.6 19.8 13.3 21.4 33 0.0 0 0 NW 12 25 heiter ---
Cottbus 69 1025.4 20.0 13.9 21.9 35 0.0 0 --- NW 8 25 wolkenlos ---
Görlitz 238 1025.4 18.8 14.0 20.8 42 0.0 0 --- N 9 25 --- ---
Aachen 231 1025.8 19.4 12.5 20.8 43 0.0 0 --- NO 12 22 --- ---
Nürburg 485 1025.3 17.8 10.3 20.6 44 0.0 0 --- NO 14 21 --- ---
Köln/Bonn-Flh. 92 1025.9 21.2 11.9 23.0 44 0.0 0 0 NO 9 15 heiter ---
Gießen/Wettenberg 203 1025.1 21.1 12.3 22.9 37 0.0 0 --- N 12 19 wolkenlos ---
Wasserkuppe 921 ------ 14.7 11.5 17.4 53 0.0 0 --- NO 9 23 wolkenlos ---
Meiningen 450 1025.2 19.4 10.0 20.8 40 0.0 0 --- NO 14 21 --- ---
Erfurt 316 1025.8 19.0 11.3 20.9 41 0.0 0 0 NO 8 20 heiter ---
Gera 311 1025.8 19.2 11.8 21.2 41 0.0 0 --- NO 9 16 --- ---
Fichtelberg 1213 ------ 11.7 8.6 13.6 60 ---- --- --- N 14 24 --- ---
Trier 265 1023.6 23.1 11.9 25.3 30 0.0 0 --- NO 15 27 --- ---
Hahn-Flh. 497 1024.3 19.2 12.3 21.3 40 0.0 0 --- O 17 27 --- ---
Frankfurt/M-Flh. 112 1024.4 23.4 15.6 26.1 27 0.0 0 0 N 13 25 heiter ---
OF-Wetterpark 119 1024.6 22.8 13.8 25.4 32 0.0 0 --- NO 9 21 wolkenlos ---
Würzburg 268 1024.7 21.9 13.6 24.2 34 0.0 0 --- NO 9 21 --- ---
Bamberg 239 1024.8 20.8 13.1 23.5 39 0.0 0 --- NO 11 27 --- ---
Hof 567 1025.5 17.5 10.9 18.7 46 0.0 0 --- N 10 17 wolkenlos ---
Weiden 438 1024.8 18.7 11.2 21.9 47 0.0 0 --- NO 7 15 --- ---
Saarbrücken-Flh. 320 1023.0 22.7 13.6 24.5 32 0.0 0 0 NO 12 28 heiter ---
Karlsruhe-Rheinst. 116 1022.9 24.6 14.6 26.5 24 0.0 0 --- O 14 28 wolkenlos ---
Mannheim 96 1023.8 23.8 14.0 26.2 31 0.0 0 --- NO 13 23 wolkenlos ---
Stuttgart-Flh. 371 1022.8 21.2 12.7 23.5 40 0.0 0 --- NO 14 21 heiter ---
Öhringen 276 1023.6 23.0 13.9 25.6 29 0.0 0 --- NO 11 22 wolkenlos ---
Nürnberg-Flh. 314 1024.5 20.8 12.7 23.8 38 0.0 0 0 NO 7 17 bewölkt ---
Regensburg 366 1024.2 20.5 14.3 23.3 36 0.0 0 --- N 5 12 wolkenlos ---
Straubing 351 1024.3 20.1 13.0 22.3 48 0.0 0 --- O 9 15 --- ---
Großer Arber 1436 ------ 10.8 7.6 12.5 58 0.0 0 --- NO 7 14 --- ---
Lahr 155 1021.4 24.4 13.3 26.5 30 0.0 0 --- NO 24 39 --- ---
Freudenstadt 797 ------ 18.6 12.8 20.7 40 0.0 0 --- O 11 24 wolkenlos ---
Stötten 734 1023.5 17.4 14.0 20.1 50 0.0 0 --- O 9 26 --- ---
Augsburg 462 1023.7 19.6 13.2 22.0 49 0.0 0 --- NO 9 20 wolkenlos ---
München-Flh. 444 1024.1 19.2 11.3 21.1 52 0.0 0 0 NO 5 15 heiter ---
Fürstenzell 476 1024.5 18.2 11.2 20.5 56 0.0 0 --- O 7 14 --- ---
Feldberg/Schw. 1486 ------ 13.4 8.0 15.4 50 0.0 0 0 O 23 33 wolkenlos ---
Konstanz 443 1021.6 22.6 13.9 25.3 39 0.0 0 --- NO 11 24 wolkenlos ---
Kempten 705 1022.4 18.8 10.0 21.2 48 0.0 0 --- O 7 21 wolkenlos ---
Oberstdorf 806 ------ 18.5 9.9 21.7 58 0.0 --- --- NW 12 26 wolkenlos ---
Zugspitze 2960 ------ 1.7 -1.9 3.6 95 ---- --- --- SW 17 31 Nebel ---
Hohenpeißenberg 977 ------ 15.6 12.3 17.6 53 0.0 0 --- NO 12 24 wolkenlos ---

 

    

  • Wetterzustand
  • Windrichtung und -geschwindigkeit
  • Luftdruck
  • relative Luftfeuchtigkeit
  • Sichtweite
  • Gesamtbedeckungsgrad
  • Niederschlag
  • Sonnenscheindauer

 Höhe:     m über NN
Luftd.:   auf Meereshöhe reduzierter Luftdruck in hPa
TEMP.:   Lufttemperatur in Grad Celsius
T-MIN:   Minimumtemperatur der Luft in 2m Höhe in Grad Celsius, von 18 UTC Vortag bis 06 UTC heute
T-MAX:  Maximumtemperatur der Luft in 2m Höhe in Grad Celsius, von 18 UTC Vortag bis 06 UTC heute
RR1:     Niederschlagsmenge, einstündig, mm ist gleich Liter pro
RR12:   Niederschlagsmenge, 12 stündig, 18 UTC Vortag bis 06 UTC heute in mm ist gleich Liter pro
SSS:     Gesamtschneehöhe
DD:      Windrichtung
FF:       Windgeschwindigkeit letztes 10-Minutenmittel in km/h
FX:       höchste Windspitze während der letzten Stunde in km/h
---:      Wert nicht vorhanden

 

2009-2020

Unwetterwarnungen

 

  Radarbild           

aktueller Radarfilm Deutschland

  Europa-Meteoalarm    

 

Waldbrandindex

ausgewähltes Produkt zur Leistung: